Time;durP1;ratioP1;P1;durP2;ratioP2;P2;SDS_P1;SDS_P2;PMS_P1;PMS_P2;Temp;Humidity;BMP_temperature;BMP_pressure;BME280_temperature;BME280_humidity;BME280_pressure;Samples;Min_cycle;Max_cycle;Signal;HPM_P1;HPM_P2
2021/01/19 00:03:20;;;;;;;156.05;125.38;;;18.30;41.00;;;;;;4744502;54;21041;-35
2021/01/19 00:08:21;;;;;;;154.93;123.43;;;18.30;41.00;;;;;;4740949;54;21030;-39
2021/01/19 00:13:22;;;;;;;153.87;120.13;;;18.30;41.60;;;;;;4763188;54;21082;-35
2021/01/19 00:18:25;;;;;;;152.82;121.18;;;18.30;40.80;;;;;;4744605;55;20989;-29
2021/01/19 00:23:25;;;;;;;151.90;119.50;;;18.30;40.80;;;;;;4760714;55;21574;-35
2021/01/19 00:28:26;;;;;;;152.35;118.13;;;18.30;40.70;;;;;;4752516;54;20997;-38
2021/01/19 00:33:27;;;;;;;151.07;120.00;;;18.30;41.30;;;;;;4743887;55;21094;-35
2021/01/19 00:38:28;;;;;;;152.82;120.30;;;18.30;41.10;;;;;;4761114;55;21443;-34
2021/01/19 00:43:29;;;;;;;145.90;114.15;;;18.30;40.70;;;;;;4753494;54;21057;-31
2021/01/19 00:48:31;;;;;;;150.68;117.20;;;18.30;40.80;;;;;;4776976;54;20990;-35
2021/01/19 00:53:32;;;;;;;145.87;114.60;;;18.30;40.60;;;;;;4787381;55;21453;-36
2021/01/19 00:58:32;;;;;;;155.37;117.87;;;18.30;40.60;;;;;;4754420;55;21046;-34
2021/01/19 01:03:34;;;;;;;151.40;119.85;;;18.30;40.50;;;;;;4740386;58;21813;-28
2021/01/19 01:08:35;;;;;;;148.90;117.30;;;18.30;40.30;;;;;;4761645;54;21017;-35
2021/01/19 01:13:36;;;;;;;149.02;117.43;;;18.30;40.60;;;;;;4751665;54;21002;-33
2021/01/19 01:18:36;;;;;;;149.70;115.90;;;18.30;40.60;;;;;;4763759;55;21533;-25
2021/01/19 01:23:38;;;;;;;145.05;113.72;;;18.30;40.40;;;;;;4763258;54;21053;-28
2021/01/19 01:28:39;;;;;;;148.93;116.25;;;18.30;40.40;;;;;;4763291;55;21073;-31
2021/01/19 01:33:40;;;;;;;141.37;111.57;;;18.20;40.20;;;;;;4762329;54;21017;-26
2021/01/19 01:38:41;;;;;;;141.32;112.57;;;18.30;40.30;;;;;;4763334;55;21057;-29
2021/01/19 01:43:42;;;;;;;140.55;111.22;;;18.30;40.10;;;;;;4789839;55;21037;-30
2021/01/19 01:48:46;;;;;;;140.43;111.82;;;18.30;40.30;;;;;;4760493;55;21033;-29
2021/01/19 01:53:53;;;;;;;144.48;114.97;;;18.30;40.30;;;;;;4775436;55;21053;-33
2021/01/19 01:58:54;;;;;;;143.20;111.28;;;18.30;40.00;;;;;;4762989;55;21029;-37
2021/01/19 02:03:55;;;;;;;141.88;112.80;;;18.30;40.20;;;;;;4743831;55;21029;-36
2021/01/19 02:09:10;;;;;;;134.90;106.18;;;18.30;40.00;;;;;;4756561;55;21009;-34
2021/01/19 02:14:35;;;;;;;138.45;110.32;;;18.30;40.20;;;;;;4748381;55;21021;-27
2021/01/19 02:21:02;;;;;;;136.43;108.05;;;18.20;39.80;;;;;;4744652;55;21460;-27
2021/01/19 02:29:32;;;;;;;134.77;106.40;;;18.30;40.10;;;;;;4771693;54;21018;-31
2021/01/19 02:35:13;;;;;;;138.30;110.82;;;18.30;39.90;;;;;;4754693;54;21022;-30
2021/01/19 02:40:18;;;;;;;138.55;108.68;;;18.20;39.90;;;;;;4791908;55;21054;-26
2021/01/19 02:45:20;;;;;;;140.60;109.95;;;18.20;39.90;;;;;;4756125;55;21062;-37
2021/01/19 02:50:21;;;;;;;134.65;108.00;;;18.20;40.00;;;;;;4777594;55;21002;-34
2021/01/19 02:55:22;;;;;;;131.70;103.87;;;18.20;39.80;;;;;;4749698;54;21502;-34
2021/01/19 03:00:47;;;;;;;141.70;107.63;;;18.20;39.90;;;;;;4758054;55;21006;-37
2021/01/19 03:05:49;;;;;;;135.40;105.75;;;18.20;39.80;;;;;;4741534;55;21070;-35
2021/01/19 03:10:52;;;;;;;136.00;106.28;;;18.20;39.70;;;;;;4779044;55;21074;-38
2021/01/19 03:16:07;;;;;;;133.10;104.18;;;18.20;39.70;;;;;;4844617;55;21150;-30
2021/01/19 03:21:08;;;;;;;132.55;105.28;;;18.20;39.80;;;;;;4839662;55;21061;-32
2021/01/19 03:26:09;;;;;;;131.07;101.00;;;18.20;39.60;;;;;;4750101;55;21045;-26
2021/01/19 03:31:10;;;;;;;130.45;101.93;;;18.20;39.80;;;;;;4750448;55;21156;-37
2021/01/19 03:36:11;;;;;;;127.87;100.97;;;18.20;39.70;;;;;;4741557;54;21467;-35
2021/01/19 03:41:12;;;;;;;129.75;100.65;;;18.20;39.50;;;;;;4791914;55;21021;-32
2021/01/19 03:46:13;;;;;;;128.90;100.07;;;18.20;39.70;;;;;;4777164;55;20998;-36
2021/01/19 03:51:15;;;;;;;126.50;101.07;;;18.20;39.70;;;;;;4743063;55;21490;-39
2021/01/19 03:56:15;;;;;;;124.15;96.25;;;18.20;39.70;;;;;;4758586;55;20998;-37
2021/01/19 04:01:16;;;;;;;123.20;98.95;;;18.20;39.60;;;;;;4740601;55;21495;-34
2021/01/19 04:06:17;;;;;;;123.20;94.97;;;18.20;39.70;;;;;;4739457;58;21090;-33
2021/01/19 04:11:18;;;;;;;125.82;98.57;;;18.20;39.50;;;;;;4742428;54;21602;-25
2021/01/19 04:16:20;;;;;;;126.25;96.70;;;18.20;39.40;;;;;;4740902;58;21511;-34
2021/01/19 04:21:23;;;;;;;123.47;96.82;;;18.20;39.50;;;;;;4765386;55;20997;-38
2021/01/19 04:26:24;;;;;;;125.70;98.85;;;18.20;39.40;;;;;;4762499;55;21491;-25
2021/01/19 04:31:25;;;;;;;118.28;92.72;;;18.20;39.30;;;;;;4758845;55;21029;-31
2021/01/19 04:36:26;;;;;;;123.43;96.80;;;18.20;39.50;;;;;;4840603;54;21040;-28
2021/01/19 04:41:27;;;;;;;121.13;94.50;;;18.20;39.40;;;;;;4740736;58;21017;-43
2021/01/19 04:46:31;;;;;;;118.75;96.97;;;18.20;39.40;;;;;;4748557;55;21021;-46
2021/01/19 04:51:34;;;;;;;117.15;94.97;;;18.20;39.30;;;;;;4766064;55;21033;-36
2021/01/19 04:56:39;;;;;;;116.20;91.72;;;18.20;39.30;;;;;;4756771;55;21574;-36
2021/01/19 05:02:21;;;;;;;116.88;91.95;;;18.20;39.40;;;;;;4767367;55;21025;-33
2021/01/19 05:07:33;;;;;;;117.10;91.78;;;18.20;39.40;;;;;;4742399;55;21017;-33
2021/01/19 05:12:44;;;;;;;119.30;93.82;;;18.20;39.40;;;;;;4757714;55;21543;-38
2021/01/19 05:17:47;;;;;;;116.25;91.60;;;18.20;39.40;;;;;;4761655;55;21071;-40
2021/01/19 05:22:56;;;;;;;112.35;90.18;;;18.20;39.40;;;;;;4751193;55;21464;-38
2021/01/19 05:27:57;;;;;;;110.88;87.03;;;18.20;39.30;;;;;;4751489;55;20993;-25
2021/01/19 05:32:58;;;;;;;112.45;89.05;;;18.20;39.30;;;;;;4755529;55;21085;-28
2021/01/19 05:38:00;;;;;;;113.12;86.68;;;18.20;39.40;;;;;;4760984;54;20990;-27
2021/01/19 05:43:09;;;;;;;110.97;87.18;;;18.20;39.40;;;;;;4763644;55;21550;-33
2021/01/19 05:48:14;;;;;;;114.53;89.30;;;18.20;39.40;;;;;;4768954;55;20986;-31
2021/01/19 05:53:16;;;;;;;107.47;85.35;;;18.20;39.30;;;;;;4814792;55;21546;-36
2021/01/19 05:58:17;;;;;;;106.03;82.72;;;18.20;39.40;;;;;;4775376;55;21045;-35
2021/01/19 06:03:18;;;;;;;107.00;86.63;;;18.10;39.50;;;;;;4794093;54;21491;-24
2021/01/19 06:08:23;;;;;;;107.55;84.00;;;18.20;39.50;;;;;;4742283;54;20989;-36
2021/01/19 06:13:25;;;;;;;108.28;86.72;;;18.10;39.50;;;;;;4739867;58;21122;-28
2021/01/19 06:18:36;;;;;;;109.53;83.93;;;18.10;39.50;;;;;;4761296;55;21089;-28
2021/01/19 06:23:46;;;;;;;108.32;85.85;;;18.10;39.50;;;;;;4764112;55;21582;-37
2021/01/19 06:28:47;;;;;;;110.75;85.68;;;18.10;39.50;;;;;;4771801;55;21080;-33
2021/01/19 06:33:50;;;;;;;105.57;85.53;;;18.10;39.70;;;;;;4740164;58;21129;-38
2021/01/19 06:38:52;;;;;;;108.93;82.78;;;18.10;39.40;;;;;;4771702;55;20987;-29
2021/01/19 06:43:59;;;;;;;109.20;84.95;;;18.20;39.70;;;;;;4740898;58;20978;-30
2021/01/19 06:49:01;;;;;;;108.07;84.57;;;18.10;39.70;;;;;;4742910;55;21543;-34
2021/01/19 06:54:08;;;;;;;106.05;82.95;;;18.10;39.60;;;;;;4759080;54;21093;-31
2021/01/19 06:59:22;;;;;;;109.50;87.07;;;18.10;39.70;;;;;;4760495;55;21811;-33
2021/01/19 07:04:24;;;;;;;109.05;84.85;;;18.10;39.40;;;;;;4760503;55;21025;-36
2021/01/19 07:10:15;;;;;;;109.50;86.90;;;18.10;39.60;;;;;;4740943;55;21005;-29
2021/01/19 07:15:21;;;;;;;102.82;80.75;;;18.10;39.50;;;;;;4766330;55;21009;-30
2021/01/19 07:20:30;;;;;;;109.25;84.95;;;18.10;39.50;;;;;;4748520;55;21097;-34
2021/01/19 07:25:31;;;;;;;111.65;84.57;;;18.10;39.40;;;;;;4761834;55;21069;-30
2021/01/19 07:30:32;;;;;;;111.05;87.00;;;18.10;39.60;;;;;;4745033;55;21574;-29
2021/01/19 07:35:35;;;;;;;113.93;88.07;;;18.10;39.60;;;;;;4790385;55;21017;-28
2021/01/19 07:40:45;;;;;;;113.90;86.20;;;18.10;39.30;;;;;;4744962;54;21021;-32
2021/01/19 07:45:54;;;;;;;114.15;88.68;;;18.10;39.50;;;;;;4741530;55;21041;-35
2021/01/19 07:50:55;;;;;;;111.82;87.57;;;18.10;40.10;;;;;;4744376;55;21025;-36
2021/01/19 07:55:56;;;;;;;117.43;89.85;;;18.10;39.30;;;;;;4755823;55;21041;-26
2021/01/19 08:00:57;;;;;;;116.95;92.43;;;18.10;39.30;;;;;;4787752;55;21914;-34
2021/01/19 08:06:11;;;;;;;119.10;91.30;;;18.10;39.10;;;;;;4757782;55;21571;-35
2021/01/19 08:11:20;;;;;;;123.53;94.03;;;18.10;39.20;;;;;;4739630;58;21290;-33
2021/01/19 08:16:26;;;;;;;121.43;90.38;;;18.10;39.60;;;;;;4761901;55;21475;-34
2021/01/19 08:21:32;;;;;;;126.35;95.38;;;18.20;40.10;;;;;;4747930;54;21097;-35
2021/01/19 08:26:34;;;;;;;121.53;91.50;;;18.20;40.30;;;;;;4764598;55;21065;-34
2021/01/19 08:31:36;;;;;;;122.65;92.68;;;18.30;40.80;;;;;;4739931;58;21069;-30
2021/01/19 08:36:37;;;;;;;122.50;91.90;;;18.30;41.10;;;;;;4752023;55;21604;-34
2021/01/19 08:41:46;;;;;;;136.05;100.15;;;18.30;41.40;;;;;;4765794;54;21086;-37
2021/01/19 08:46:48;;;;;;;130.75;96.45;;;18.40;41.50;;;;;;4764169;55;21095;-37
2021/01/19 08:51:51;;;;;;;131.57;100.55;;;18.40;41.60;;;;;;4741388;55;21081;-32
2021/01/19 08:56:51;;;;;;;128.57;99.43;;;18.50;41.80;;;;;;4759840;54;21503;-36
2021/01/19 09:01:55;;;;;;;131.55;99.80;;;18.50;41.90;;;;;;4745992;54;21139;-40
2021/01/19 09:07:10;;;;;;;139.40;104.57;;;18.50;42.10;;;;;;4780580;54;21016;-32
2021/01/19 09:12:20;;;;;;;144.60;108.20;;;18.50;42.30;;;;;;4739681;58;21578;-38
2021/01/19 09:17:28;;;;;;;144.20;108.60;;;18.50;42.40;;;;;;4786067;55;21455;-40
2021/01/19 09:22:28;;;;;;;;;;;18.60;42.50;;;;;;4744394;55;21085;-32
2021/01/19 09:27:29;;;;;;;165.12;119.07;;;18.60;42.60;;;;;;4746909;55;20056;-33
2021/01/19 09:32:30;;;;;;;160.15;120.93;;;18.60;42.30;;;;;;4753281;54;21512;-32
2021/01/19 09:37:31;;;;;;;163.98;123.00;;;18.60;42.90;;;;;;4742827;54;21021;-28
2021/01/19 09:42:33;;;;;;;163.23;122.18;;;18.60;42.10;;;;;;4757441;54;21509;-28
2021/01/19 09:47:35;;;;;;;168.55;123.80;;;18.60;42.00;;;;;;4740743;55;21566;-32
2021/01/19 09:52:36;;;;;;;161.05;119.50;;;18.60;42.90;;;;;;4760213;55;21105;-34
2021/01/19 09:57:37;;;;;;;167.18;123.32;;;18.70;43.00;;;;;;4743586;55;21133;-27
2021/01/19 10:02:39;;;;;;;172.25;126.18;;;18.70;42.90;;;;;;4756610;55;21025;-28
2021/01/19 10:07:42;;;;;;;167.68;126.38;;;18.80;43.30;;;;;;4754744;55;21590;-30
2021/01/19 10:12:44;;;;;;;172.05;128.62;;;18.80;43.70;;;;;;4746548;54;21160;-28
2021/01/19 10:17:47;;;;;;;168.15;120.35;;;18.80;44.40;;;;;;4739747;58;21081;-28
2021/01/19 10:22:57;;;;;;;174.68;130.57;;;18.90;44.30;;;;;;4744609;55;21070;-31
2021/01/19 10:28:00;;;;;;;165.35;122.50;;;18.90;44.40;;;;;;4767303;55;21097;-34
2021/01/19 10:33:02;;;;;;;167.93;123.80;;;19.00;44.70;;;;;;4749655;55;21018;-32
2021/01/19 10:38:08;;;;;;;179.75;130.40;;;19.10;45.00;;;;;;4693782;55;538103;-29
2021/01/19 10:43:10;;;;;;;175.00;129.80;;;19.10;45.20;;;;;;4676163;55;21476;-31
2021/01/19 10:48:22;;;;;;;174.80;131.35;;;19.20;45.40;;;;;;4690785;55;21003;-33
2021/01/19 10:53:29;;;;;;;171.45;128.70;;;19.20;45.50;;;;;;4698809;56;21034;-30
2021/01/19 10:58:30;;;;;;;164.13;123.25;;;19.10;45.70;;;;;;4672865;56;21054;-33
2021/01/19 11:03:31;;;;;;;164.30;122.90;;;19.20;45.90;;;;;;4689206;56;21099;-34
2021/01/19 11:08:31;;;;;;;164.35;125.60;;;19.20;46.70;;;;;;4682273;56;21002;-31
2021/01/19 11:13:33;;;;;;;171.48;126.00;;;19.20;46.30;;;;;;4674070;56;21078;-30
2021/01/19 11:18:36;;;;;;;170.77;125.78;;;19.30;46.60;;;;;;4688361;55;21599;-33
2021/01/19 11:23:38;;;;;;;175.85;132.45;;;19.20;46.50;;;;;;4676900;56;21572;-40
2021/01/19 11:28:40;;;;;;;169.68;126.43;;;19.30;46.50;;;;;;4674569;56;21476;-29
2021/01/19 11:33:41;;;;;;;176.87;131.82;;;19.30;46.70;;;;;;4679801;55;21085;-34
2021/01/19 11:38:52;;;;;;;189.18;137.48;;;19.30;46.50;;;;;;4697235;56;21608;-28
2021/01/19 11:43:54;;;;;;;179.05;133.07;;;19.20;47.30;;;;;;4683942;55;21022;-30
2021/01/19 11:48:57;;;;;;;183.35;135.12;;;19.20;46.90;;;;;;4671114;59;21002;-32
2021/01/19 11:54:00;;;;;;;171.82;132.02;;;19.30;47.10;;;;;;4721691;55;21078;-33
2021/01/19 11:59:03;;;;;;;178.57;134.05;;;19.30;47.30;;;;;;4675247;55;20998;-29
2021/01/19 12:04:05;;;;;;;176.73;132.15;;;19.30;47.40;;;;;;4541081;55;21167;-33
2021/01/19 12:09:10;;;;;;;182.25;136.98;;;19.30;47.20;;;;;;4871170;58;21049;-34
2021/01/19 12:14:11;;;;;;;180.00;136.23;;;19.20;47.00;;;;;;4528266;58;21130;-32
2021/01/19 12:19:12;;;;;;;180.43;136.18;;;19.10;46.90;;;;;;4451148;59;21068;-32
2021/01/19 12:24:14;;;;;;;188.27;137.52;;;19.10;46.90;;;;;;4535667;59;21535;-27
2021/01/19 12:29:16;;;;;;;190.27;139.93;;;19.10;46.60;;;;;;4479947;59;21088;-29
2021/01/19 12:34:19;;;;;;;187.00;137.40;;;19.00;46.50;;;;;;4513784;59;21648;-33
2021/01/19 12:39:20;;;;;;;185.77;136.57;;;19.00;46.40;;;;;;4475363;58;21044;-33
2021/01/19 12:44:21;;;;;;;185.52;137.95;;;19.00;46.40;;;;;;4453258;59;21054;-31
2021/01/19 12:49:22;;;;;;;176.90;130.12;;;19.00;46.10;;;;;;4447919;63;21065;-31
2021/01/19 12:54:23;;;;;;;180.87;135.30;;;19.00;46.20;;;;;;4460823;59;21152;-29
2021/01/19 12:59:23;;;;;;;182.18;135.07;;;19.10;46.20;;;;;;4492450;59;21129;-30
2021/01/19 13:04:24;;;;;;;182.50;137.25;;;19.20;46.40;;;;;;4463885;59;21129;-29
2021/01/19 13:09:26;;;;;;;178.73;132.70;;;19.20;46.50;;;;;;4471040;59;21118;-30
2021/01/19 13:14:27;;;;;;;178.10;136.02;;;19.20;46.70;;;;;;4489691;59;21186;-27
2021/01/19 13:19:28;;;;;;;171.27;128.45;;;19.20;46.80;;;;;;4475866;59;21098;-25
2021/01/19 13:24:28;;;;;;;175.98;128.27;;;19.30;47.00;;;;;;4449009;59;21061;-30
2021/01/19 13:29:29;;;;;;;171.00;130.90;;;19.30;47.40;;;;;;4507955;59;21080;-31
2021/01/19 13:34:30;;;;;;;168.05;126.75;;;19.30;47.30;;;;;;4475531;59;21141;-29
2021/01/19 13:39:31;;;;;;;173.75;127.45;;;19.40;47.60;;;;;;4468248;59;21038;-30
2021/01/19 13:44:33;;;;;;;174.35;130.60;;;19.40;47.80;;;;;;4494137;59;21519;-32
2021/01/19 13:49:34;;;;;;;165.55;124.55;;;19.40;47.90;;;;;;4504042;59;21162;-29
2021/01/19 13:54:35;;;;;;;168.68;130.52;;;19.40;48.10;;;;;;4475507;59;21235;-31
2021/01/19 13:59:36;;;;;;;163.30;123.40;;;19.40;48.20;;;;;;4465976;59;21050;-33
2021/01/19 14:04:36;;;;;;;167.37;129.40;;;19.40;48.40;;;;;;4461702;59;21237;-27
2021/01/19 14:09:37;;;;;;;165.62;123.97;;;19.40;48.40;;;;;;4503024;59;21118;-32
2021/01/19 14:14:38;;;;;;;156.70;120.97;;;19.40;48.40;;;;;;4447226;59;21110;-29
2021/01/19 14:19:39;;;;;;;160.27;125.28;;;19.40;48.20;;;;;;4446199;63;21511;-31
2021/01/19 14:24:40;;;;;;;166.10;124.75;;;19.40;48.20;;;;;;4457952;59;21049;-31
2021/01/19 14:29:41;;;;;;;166.60;126.15;;;19.30;48.30;;;;;;4446371;59;21283;-32
2021/01/19 14:34:41;;;;;;;160.75;123.03;;;19.30;48.10;;;;;;4639339;59;21054;-31
2021/01/19 14:39:43;;;;;;;163.45;123.18;;;19.30;48.10;;;;;;4610311;59;21057;-28
2021/01/19 14:44:47;;;;;;;162.62;122.95;;;19.30;48.10;;;;;;4478998;59;21105;-33
2021/01/19 14:49:48;;;;;;;169.52;125.32;;;19.30;48.00;;;;;;4466459;59;21149;-34
2021/01/19 14:54:52;;;;;;;165.25;124.75;;;19.30;47.80;;;;;;4469239;59;21066;-32
2021/01/19 14:59:53;;;;;;;163.27;121.35;;;19.40;47.80;;;;;;4514806;59;22252;-34
2021/01/19 15:04:55;;;;;;;175.73;130.05;;;19.40;48.00;;;;;;4451167;59;21133;-32
2021/01/19 15:09:56;;;;;;;169.57;127.50;;;19.40;47.70;;;;;;4478870;59;21519;-31
2021/01/19 15:14:57;;;;;;;178.90;134.12;;;19.30;47.70;;;;;;4468663;59;21065;-31
2021/01/19 15:19:58;;;;;;;172.30;129.50;;;19.30;47.80;;;;;;4447178;63;21050;-33
2021/01/19 15:24:59;;;;;;;171.87;127.22;;;19.30;47.80;;;;;;4507553;59;21495;-32
2021/01/19 15:30:00;;;;;;;182.02;135.12;;;19.30;47.80;;;;;;4484984;59;21094;-30
2021/01/19 15:35:01;;;;;;;186.77;138.00;;;19.30;47.90;;;;;;4519463;59;21584;-36
2021/01/19 15:40:03;;;;;;;187.18;138.80;;;19.20;48.00;;;;;;4602666;59;21082;-34
2021/01/19 15:45:05;;;;;;;190.35;138.75;;;19.20;47.60;;;;;;4446866;63;21037;-37
2021/01/19 15:50:09;;;;;;;188.00;141.98;;;19.20;47.60;;;;;;4599112;59;21081;-35
2021/01/19 15:55:11;;;;;;;190.93;139.60;;;19.20;47.60;;;;;;4558281;59;21219;-27
2021/01/19 16:00:13;;;;;;;190.38;141.68;;;19.20;47.60;;;;;;4535999;59;21026;-30
2021/01/19 16:05:14;;;;;;;198.68;146.35;;;19.20;47.70;;;;;;4466224;59;21074;-34
2021/01/19 16:10:15;;;;;;;203.48;148.73;;;19.10;47.50;;;;;;4492282;59;21495;-35
2021/01/19 16:15:16;;;;;;;198.13;149.10;;;19.10;47.40;;;;;;4446641;63;21058;-36
2021/01/19 16:20:17;;;;;;;203.12;148.43;;;19.00;47.50;;;;;;4483110;59;21034;-34
2021/01/19 16:25:19;;;;;;;200.82;150.27;;;19.00;47.30;;;;;;4469507;59;21575;-35
2021/01/19 16:30:20;;;;;;;208.13;151.05;;;19.00;47.20;;;;;;4707190;59;21503;-34
2021/01/19 16:35:23;;;;;;;213.50;156.87;;;18.90;46.90;;;;;;4587131;59;21108;-35
2021/01/19 16:40:24;;;;;;;203.35;151.45;;;18.90;46.80;;;;;;4817665;59;21503;-33
2021/01/19 16:45:25;;;;;;;202.35;149.62;;;18.80;47.30;;;;;;4650219;59;21037;-32
2021/01/19 16:50:26;;;;;;;212.05;152.75;;;18.80;46.70;;;;;;4485627;59;21037;-34
2021/01/19 16:55:28;;;;;;;210.88;152.38;;;18.80;46.60;;;;;;4568098;59;21549;-36
2021/01/19 17:00:29;;;;;;;213.07;162.48;;;18.80;46.50;;;;;;4447330;59;21599;-30
2021/01/19 17:05:30;;;;;;;216.23;157.35;;;18.70;46.60;;;;;;4610704;59;21033;-34
2021/01/19 17:10:32;;;;;;;217.87;161.20;;;18.80;46.40;;;;;;4549302;59;21102;-33
2021/01/19 17:15:33;;;;;;;212.68;159.98;;;18.70;46.40;;;;;;4545582;59;21042;-34
2021/01/19 17:20:34;;;;;;;218.27;165.52;;;18.70;46.30;;;;;;4447709;59;21117;-31
2021/01/19 17:25:35;;;;;;;214.38;160.20;;;18.70;46.20;;;;;;4447308;63;21053;-32
2021/01/19 17:30:35;;;;;;;219.37;162.40;;;18.70;46.00;;;;;;4481212;59;21041;-34
2021/01/19 17:35:36;;;;;;;220.52;165.18;;;18.70;45.90;;;;;;4447335;63;21118;-31
2021/01/19 17:40:37;;;;;;;213.43;159.98;;;18.60;45.80;;;;;;4512155;59;21551;-31
2021/01/19 17:45:39;;;;;;;233.00;172.35;;;18.70;45.90;;;;;;4468170;59;21178;-32
2021/01/19 17:50:40;;;;;;;219.32;168.90;;;18.60;46.00;;;;;;4507574;59;21596;-35
2021/01/19 17:55:41;;;;;;;220.98;168.87;;;18.60;45.70;;;;;;4619550;59;21066;-33
2021/01/19 18:00:42;;;;;;;224.25;172.15;;;18.60;45.80;;;;;;4447054;63;21074;-35
2021/01/19 18:05:42;;;;;;;227.20;168.98;;;18.60;45.70;;;;;;4560490;59;21069;-35
2021/01/19 18:10:43;;;;;;;223.23;166.50;;;18.60;45.50;;;;;;4496884;59;21081;-33
2021/01/19 18:15:44;;;;;;;221.70;168.95;;;18.60;45.60;;;;;;4529736;59;21045;-31
2021/01/19 18:20:45;;;;;;;229.18;173.23;;;18.60;45.60;;;;;;4447269;59;21094;-33
2021/01/19 18:25:48;;;;;;;224.90;172.27;;;18.60;45.40;;;;;;4488518;59;21046;-32
2021/01/19 18:30:48;;;;;;;224.93;173.40;;;18.60;45.40;;;;;;4447372;63;21496;-33
2021/01/19 18:35:49;;;;;;;227.68;172.95;;;18.60;45.40;;;;;;4447186;63;21058;-35
2021/01/19 18:40:50;;;;;;;229.20;176.68;;;18.60;45.30;;;;;;4447470;63;21527;-33
2021/01/19 18:45:51;;;;;;;222.82;169.30;;;18.60;45.20;;;;;;4533958;59;21567;-35
2021/01/19 18:50:52;;;;;;;220.40;169.35;;;18.50;45.30;;;;;;4550511;59;21085;-34
2021/01/19 18:55:53;;;;;;;228.82;177.10;;;18.60;45.20;;;;;;4549591;59;21633;-34
2021/01/19 19:00:53;;;;;;;230.40;174.30;;;18.60;45.40;;;;;;4447588;63;21077;-33
2021/01/19 19:05:54;;;;;;;228.80;177.00;;;18.60;45.10;;;;;;4501461;59;21066;-32
2021/01/19 19:10:55;;;;;;;233.75;178.43;;;18.50;45.00;;;;;;4496134;59;21066;-34
2021/01/19 19:15:56;;;;;;;224.27;171.45;;;18.50;45.10;;;;;;4461702;59;21515;-34
2021/01/19 19:20:57;;;;;;;234.75;177.32;;;18.50;44.90;;;;;;4447435;63;21141;-34
2021/01/19 19:25:58;;;;;;;231.07;179.93;;;18.50;44.90;;;;;;4475142;59;21102;-33
2021/01/19 19:30:59;;;;;;;239.18;182.95;;;18.50;45.10;;;;;;4509218;59;21066;-34
2021/01/19 19:35:59;;;;;;;232.68;179.15;;;18.50;44.90;;;;;;4710667;59;21053;-34
2021/01/19 19:41:02;;;;;;;229.70;173.02;;;18.50;44.70;;;;;;4479805;59;21126;-31
2021/01/19 19:46:04;;;;;;;240.48;185.80;;;18.50;44.70;;;;;;4440539;63;21074;-35
2021/01/19 19:51:05;;;;;;;235.27;182.02;;;18.50;44.80;;;;;;4450730;59;21620;-28
2021/01/19 19:56:05;;;;;;;232.77;176.35;;;18.50;44.60;;;;;;4442505;59;21069;-29
2021/01/19 20:01:07;;;;;;;241.88;184.18;;;18.50;44.60;;;;;;4458309;59;21630;-26
2021/01/19 20:06:08;;;;;;;234.43;183.98;;;18.50;44.60;;;;;;4459396;59;21105;-35
2021/01/19 20:11:13;;;;;;;242.65;185.93;;;18.50;44.90;;;;;;4461163;59;21505;-28
2021/01/19 20:16:14;;;;;;;243.10;188.37;;;18.50;44.70;;;;;;4450896;59;22141;-30
2021/01/19 20:21:15;;;;;;;236.32;184.43;;;18.50;44.50;;;;;;4443298;59;21062;-33
2021/01/19 20:26:16;;;;;;;244.00;187.88;;;18.50;44.50;;;;;;4443079;59;22403;-32
2021/01/19 20:31:20;;;;;;;242.10;188.87;;;18.50;44.60;;;;;;4455680;59;21111;-31
2021/01/19 20:36:21;;;;;;;233.27;178.40;;;18.50;44.60;;;;;;4469493;59;21133;-33
2021/01/19 20:41:23;;;;;;;248.60;192.50;;;18.50;44.40;;;;;;4494130;59;21702;-32
2021/01/19 20:46:25;;;;;;;243.02;186.40;;;18.50;44.60;;;;;;4451485;59;21133;-29
2021/01/19 20:51:26;;;;;;;252.60;193.30;;;18.50;44.40;;;;;;4440303;63;21058;-33
2021/01/19 20:56:27;;;;;;;242.07;184.93;;;18.50;44.30;;;;;;4451970;59;21033;-30
2021/01/19 21:01:27;;;;;;;249.32;194.07;;;18.50;44.40;;;;;;4440048;63;21631;-32
2021/01/19 21:06:28;;;;;;;245.05;187.02;;;18.50;44.10;;;;;;4452652;59;21161;-34
2021/01/19 21:11:29;;;;;;;252.95;193.95;;;18.50;44.10;;;;;;4490553;59;21603;-34
2021/01/19 21:16:30;;;;;;;243.43;189.55;;;18.50;44.10;;;;;;4442032;59;21136;-29
2021/01/19 21:21:31;;;;;;;236.73;178.68;;;18.40;44.10;;;;;;4478803;59;21041;-34
2021/01/19 21:26:32;;;;;;;246.90;189.77;;;18.40;44.20;;;;;;4455441;59;21571;-34
2021/01/19 21:31:33;;;;;;;251.73;193.35;;;18.40;44.70;;;;;;4467950;59;21129;-35
2021/01/19 21:36:34;;;;;;;253.60;192.85;;;18.40;43.80;;;;;;4447359;59;21145;-28
2021/01/19 21:41:34;;;;;;;245.73;192.43;;;18.40;44.10;;;;;;4461928;59;21575;-34
2021/01/19 21:46:35;;;;;;;251.57;190.35;;;18.40;44.00;;;;;;4440573;63;21145;-34
2021/01/19 21:51:36;;;;;;;256.85;192.57;;;18.40;43.90;;;;;;4454507;59;21109;-33
2021/01/19 21:56:40;;;;;;;261.92;197.40;;;18.40;44.10;;;;;;4480854;59;21562;-33
2021/01/19 22:01:41;;;;;;;259.80;196.60;;;18.40;43.90;;;;;;4439769;63;21131;-34
2021/01/19 22:06:42;;;;;;;260.15;195.05;;;18.40;43.70;;;;;;4459213;59;21138;-35
2021/01/19 22:11:43;;;;;;;256.05;195.05;;;18.40;43.80;;;;;;4440454;63;21182;-35
2021/01/19 22:16:46;;;;;;;250.30;187.95;;;18.40;43.80;;;;;;4470445;59;21042;-26
2021/01/19 22:21:47;;;;;;;253.10;188.40;;;18.40;43.60;;;;;;4477426;59;21109;-34
2021/01/19 22:26:48;;;;;;;261.27;200.20;;;18.40;43.40;;;;;;4449309;59;21221;-33
2021/01/19 22:31:49;;;;;;;261.35;197.93;;;18.40;43.40;;;;;;4449700;59;21563;-32
2021/01/19 22:36:50;;;;;;;258.87;197.25;;;18.40;43.40;;;;;;4472087;59;21129;-35
2021/01/19 22:41:51;;;;;;;268.83;202.57;;;18.40;43.30;;;;;;4471113;59;21045;-33
2021/01/19 22:46:52;;;;;;;262.95;197.80;;;18.40;43.40;;;;;;4450019;59;21053;-33
2021/01/19 22:51:52;;;;;;;258.90;192.20;;;18.40;43.20;;;;;;4449154;59;21606;-34
2021/01/19 22:56:53;;;;;;;271.90;207.85;;;18.40;43.20;;;;;;4450336;59;21129;-35
2021/01/19 23:01:54;;;;;;;262.92;197.13;;;18.40;43.20;;;;;;4451624;59;21603;-33
2021/01/19 23:06:55;;;;;;;261.92;194.93;;;18.40;43.30;;;;;;4458696;59;21081;-34
2021/01/19 23:11:56;;;;;;;274.23;204.30;;;18.40;43.00;;;;;;4454111;59;21543;-35
2021/01/19 23:16:57;;;;;;;269.87;202.62;;;18.40;43.00;;;;;;4443656;59;21676;-33
2021/01/19 23:21:58;;;;;;;270.08;201.37;;;18.40;43.00;;;;;;4440540;63;21053;-34
2021/01/19 23:26:59;;;;;;;269.92;202.25;;;18.40;42.80;;;;;;4451671;59;21117;-27
2021/01/19 23:32:00;;;;;;;267.37;197.77;;;18.30;42.70;;;;;;4440514;59;21057;-35
2021/01/19 23:37:01;;;;;;;263.37;198.85;;;18.40;42.80;;;;;;4441335;60;21526;-35
2021/01/19 23:42:02;;;;;;;266.52;198.57;;;18.30;42.70;;;;;;4440637;63;21115;-34
2021/01/19 23:47:03;;;;;;;260.10;196.20;;;18.40;42.60;;;;;;4443475;59;21066;-33
2021/01/19 23:52:04;;;;;;;259.80;192.82;;;18.30;42.60;;;;;;4440223;63;21085;-28
2021/01/19 23:57:05;;;;;;;270.55;199.05;;;18.30;42.50;;;;;;4452267;59;21065;-34
